Fry Canyon, Utah
Current Conditions -  °F | °C
As of 2:35 PM on Thursday 18 Dec 2014 (Local Time) from KBDG Reporting Station
Overcast Overcast  
Wind Chill: 34°   Ceiling: 3300
Heat Index: 38°   Visibility: 10mi
Dew Point: 31°   Wind: 5mph
Humidity: 76%   Direction: 270°W
Pressure: 30.18"   Gusts: NA
Location:  37.6208°N, 109.479°W
Report Text: KBDG 182135Z AUTO 27004KT 10SM SCT021 BKN033 OVC075 03/M01 A3018 RMK AO1 T00321007
Loading
Personal Weather Stations






























Interactive Weather Map New forecast layout! Learn more

10-Day Weather Forecast

Advertisements
Track Severe Weather on mobile